Time,TemperatureF,DewpointF,PressureIn,WindDirection,WindDirectionDegrees,WindSpeedMPH,WindSpeedGustMPH,Humidity,HourlyPrecipIn,Conditions,Clouds,dailyrainin,SolarRadiationWatts/m^2,SoftwareType,DateUTC
2013-04-04 00:02:00,52.0,28.0,-100.00,NNE,15,2.0,5.0,39,0.00,,,0.00,0.000000,,2013-04-04 07:02:00,
2013-04-04 00:12:00,52.0,28.0,-100.00,NNE,15,2.0,5.0,39,0.00,,,0.00,0.000000,,2013-04-04 07:12:00,
2013-04-04 00:22:00,52.0,28.0,-100.00,NNE,15,2.0,5.0,39,0.00,,,0.00,0.000000,,2013-04-04 07:22:00,
2013-04-04 00:32:00,52.0,28.0,-100.00,NNE,15,2.0,5.0,39,0.00,,,0.00,0.000000,,2013-04-04 07:32:00,
2013-04-04 00:52:00,52.0,28.0,-100.00,NNE,17,2.0,4.0,39,0.00,,,0.00,0.000000,,2013-04-04 07:52:00,
2013-04-04 01:02:00,52.0,28.0,-100.00,NNE,17,2.0,4.0,39,0.00,,,0.00,0.000000,,2013-04-04 08:02:00,
2013-04-04 01:12:00,52.0,28.0,-100.00,NNE,17,2.0,4.0,39,0.00,,,0.00,0.000000,,2013-04-04 08:12:00,
2013-04-04 01:22:00,52.0,28.0,-100.00,NNE,17,2.0,4.0,39,0.00,,,0.00,0.000000,,2013-04-04 08:22:00,
2013-04-04 01:32:00,52.0,28.0,-100.00,NNE,17,2.0,4.0,39,0.00,,,0.00,0.000000,,2013-04-04 08:32:00,
2013-04-04 01:52:00,51.0,29.0,-100.00,NNW,341,3.0,8.0,43,0.00,,,0.00,0.000000,,2013-04-04 08:52:00,
2013-04-04 02:02:00,51.0,29.0,-100.00,NNW,341,3.0,8.0,43,0.00,,,0.00,0.000000,,2013-04-04 09:02:00,
2013-04-04 02:12:00,51.0,29.0,-100.00,NNW,341,3.0,8.0,43,0.00,,,0.00,0.000000,,2013-04-04 09:12:00,
2013-04-04 02:22:00,51.0,29.0,-100.00,NNW,341,3.0,8.0,43,0.00,,,0.00,0.000000,,2013-04-04 09:22:00,
2013-04-04 02:32:00,51.0,29.0,-100.00,NNW,341,3.0,8.0,43,0.00,,,0.00,0.000000,,2013-04-04 09:32:00,
2013-04-04 02:53:00,54.0,31.0,-100.00,NE,52,8.0,14.0,41,0.00,,,0.00,0.000000,,2013-04-04 09:53:00,
2013-04-04 03:03:00,54.0,31.0,-100.00,NE,52,8.0,14.0,41,0.00,,,0.00,0.000000,,2013-04-04 10:03:00,
2013-04-04 03:12:00,54.0,31.0,-100.00,NE,52,8.0,14.0,41,0.00,,,0.00,0.000000,,2013-04-04 10:12:00,
2013-04-04 03:23:00,54.0,31.0,-100.00,NE,52,8.0,14.0,41,0.00,,,0.00,0.000000,,2013-04-04 10:23:00,
2013-04-04 03:53:00,50.0,34.0,-100.00,ESE,110,4.0,10.0,55,-99.99,,,0.00,0.000000,,2013-04-04 10:53:00,
2013-04-04 04:02:00,50.0,34.0,-100.00,ESE,110,4.0,10.0,55,-99.99,,,0.00,0.000000,,2013-04-04 11:02:00,
2013-04-04 04:12:00,50.0,34.0,-100.00,ESE,110,4.0,10.0,55,-99.99,,,0.00,0.000000,,2013-04-04 11:12:00,
2013-04-04 04:22:00,50.0,34.0,-100.00,ESE,110,4.0,10.0,55,-99.99,,,0.00,0.000000,,2013-04-04 11:22:00,
2013-04-04 04:32:00,50.0,34.0,-100.00,ESE,110,4.0,10.0,55,-99.99,,,0.00,0.000000,,2013-04-04 11:32:00,
2013-04-04 05:02:00,49.0,37.0,-100.00,NNE,27,3.0,9.0,63,0.00,,,0.00,0.000000,,2013-04-04 12:02:00,
2013-04-04 05:12:00,49.0,37.0,-100.00,NNE,27,3.0,9.0,63,0.00,,,0.00,0.000000,,2013-04-04 12:12:00,
2013-04-04 05:22:00,49.0,37.0,-100.00,NNE,27,3.0,9.0,63,0.00,,,0.00,0.000000,,2013-04-04 12:22:00,
2013-04-04 05:32:00,49.0,37.0,-100.00,NNE,27,3.0,9.0,63,0.00,,,0.00,0.000000,,2013-04-04 12:32:00,
2013-04-04 05:52:00,50.0,30.0,-100.00,WNW,299,6.0,18.0,46,0.00,,,0.00,0.000000,,2013-04-04 12:52:00,
2013-04-04 06:02:00,50.0,30.0,-100.00,WNW,299,6.0,18.0,46,0.00,,,0.00,0.000000,,2013-04-04 13:02:00,
2013-04-04 06:12:00,50.0,30.0,-100.00,WNW,299,6.0,18.0,46,0.00,,,0.00,0.000000,,2013-04-04 13:12:00,
2013-04-04 06:22:00,50.0,30.0,-100.00,WNW,299,6.0,18.0,46,0.00,,,0.00,0.000000,,2013-04-04 13:22:00,
2013-04-04 06:32:00,50.0,30.0,-100.00,WNW,299,6.0,18.0,46,0.00,,,0.00,0.000000,,2013-04-04 13:32:00,
2013-04-04 06:53:00,49.0,37.0,-100.00,ESE,106,4.0,14.0,62,0.00,,,0.00,0.000000,,2013-04-04 13:53:00,
2013-04-04 07:02:00,49.0,37.0,-100.00,ESE,106,4.0,14.0,62,0.00,,,0.00,0.000000,,2013-04-04 14:02:00,
2013-04-04 07:12:00,49.0,37.0,-100.00,ESE,106,4.0,14.0,62,0.00,,,0.00,0.000000,,2013-04-04 14:12:00,
2013-04-04 07:22:00,49.0,37.0,-100.00,ESE,106,4.0,14.0,62,0.00,,,0.00,0.000000,,2013-04-04 14:22:00,
2013-04-04 07:32:00,49.0,37.0,-100.00,ESE,106,4.0,14.0,62,0.00,,,0.00,0.000000,,2013-04-04 14:32:00,
2013-04-04 07:52:00,48.0,36.0,-100.00,ESE,123,3.0,7.0,62,0.00,,,0.00,14.000000,,2013-04-04 14:52:00,
2013-04-04 08:02:00,48.0,36.0,-100.00,ESE,123,3.0,7.0,62,0.00,,,0.00,14.000000,,2013-04-04 15:02:00,
2013-04-04 08:12:00,48.0,36.0,-100.00,ESE,123,3.0,7.0,62,0.00,,,0.00,14.000000,,2013-04-04 15:12:00,
2013-04-04 08:22:00,48.0,36.0,-100.00,ESE,123,3.0,7.0,62,0.00,,,0.00,14.000000,,2013-04-04 15:22:00,
2013-04-04 08:33:00,48.0,36.0,-100.00,ESE,123,3.0,7.0,62,0.00,,,0.00,14.000000,,2013-04-04 15:33:00,
2013-04-04 08:53:00,48.0,38.0,-100.00,SE,145,6.0,10.0,69,0.00,,,0.00,42.000000,,2013-04-04 15:53:00,
2013-04-04 09:03:00,48.0,38.0,-100.00,SE,145,6.0,10.0,69,0.00,,,0.00,42.000000,,2013-04-04 16:03:00,
2013-04-04 09:12:00,48.0,38.0,-100.00,SE,145,6.0,10.0,69,0.00,,,0.00,42.000000,,2013-04-04 16:12:00,
2013-04-04 09:23:00,48.0,38.0,-100.00,SE,145,6.0,10.0,69,0.00,,,0.00,42.000000,,2013-04-04 16:23:00,
2013-04-04 09:32:00,48.0,38.0,-100.00,SE,145,6.0,10.0,69,0.00,,,0.00,42.000000,,2013-04-04 16:32:00,
2013-04-04 09:53:00,51.0,38.0,-100.00,SE,142,6.0,15.0,61,0.00,,,0.00,95.000000,,2013-04-04 16:53:00,
2013-04-04 10:02:00,51.0,38.0,-100.00,SE,142,6.0,15.0,61,0.00,,,0.00,95.000000,,2013-04-04 17:02:00,
2013-04-04 10:13:00,51.0,38.0,-100.00,SE,142,6.0,15.0,61,0.00,,,0.00,95.000000,,2013-04-04 17:13:00,
2013-04-04 10:22:00,51.0,38.0,-100.00,SE,142,6.0,15.0,61,0.00,,,0.00,95.000000,,2013-04-04 17:22:00,
2013-04-04 10:32:00,51.0,38.0,-100.00,SE,142,6.0,15.0,61,0.00,,,0.00,95.000000,,2013-04-04 17:32:00,
2013-04-04 10:52:00,49.0,36.0,-100.00,South,171,10.0,19.0,60,0.00,,,0.00,158.000000,,2013-04-04 17:52:00,
2013-04-04 11:02:00,49.0,36.0,-100.00,South,171,10.0,19.0,60,0.00,,,0.00,158.000000,,2013-04-04 18:02:00,
2013-04-04 11:12:00,49.0,36.0,-100.00,South,171,10.0,19.0,60,0.00,,,0.00,158.000000,,2013-04-04 18:12:00,
2013-04-04 11:22:00,49.0,36.0,-100.00,South,171,10.0,19.0,60,0.00,,,0.00,158.000000,,2013-04-04 18:22:00,
2013-04-04 11:32:00,49.0,36.0,-100.00,South,171,10.0,19.0,60,0.00,,,0.00,158.000000,,2013-04-04 18:32:00,
2013-04-04 11:52:00,46.0,41.0,-100.00,South,176,5.0,14.0,83,0.00,,,0.00,100.000000,,2013-04-04 18:52:00,
2013-04-04 12:02:00,46.0,41.0,-100.00,South,176,5.0,14.0,83,0.00,,,0.00,100.000000,,2013-04-04 19:02:00,
2013-04-04 12:12:00,46.0,41.0,-100.00,South,176,5.0,14.0,83,0.00,,,0.00,100.000000,,2013-04-04 19:12:00,
2013-04-04 12:22:00,46.0,41.0,-100.00,South,176,5.0,14.0,83,0.00,,,0.00,100.000000,,2013-04-04 19:22:00,
2013-04-04 12:32:00,46.0,41.0,-100.00,South,176,5.0,14.0,83,0.00,,,0.00,100.000000,,2013-04-04 19:32:00,
2013-04-04 12:52:00,47.0,45.0,-100.00,SSE,163,5.0,11.0,91,0.02,,,0.02,166.000000,,2013-04-04 19:52:00,
2013-04-04 13:03:00,47.0,45.0,-100.00,SSE,163,5.0,11.0,91,0.02,,,0.02,166.000000,,2013-04-04 20:03:00,
2013-04-04 13:12:00,47.0,45.0,-100.00,SSE,163,5.0,11.0,91,0.02,,,0.02,166.000000,,2013-04-04 20:12:00,
2013-04-04 13:22:00,47.0,45.0,-100.00,SSE,163,5.0,11.0,91,0.02,,,0.02,166.000000,,2013-04-04 20:22:00,
2013-04-04 13:32:00,47.0,45.0,-100.00,SSE,163,5.0,11.0,91,0.02,,,0.02,166.000000,,2013-04-04 20:32:00,
2013-04-04 13:53:00,49.0,43.0,-100.00,SSW,210,7.0,11.0,79,0.01,,,-99.99,227.000000,,2013-04-04 20:53:00,
2013-04-04 14:02:00,49.0,43.0,-100.00,SSW,210,7.0,11.0,79,0.01,,,-99.99,227.000000,,2013-04-04 21:02:00,
2013-04-04 14:12:00,49.0,43.0,-100.00,SSW,210,7.0,11.0,79,0.01,,,-99.99,227.000000,,2013-04-04 21:12:00,
2013-04-04 14:22:00,49.0,43.0,-100.00,SSW,210,7.0,11.0,79,0.01,,,-99.99,227.000000,,2013-04-04 21:22:00,
2013-04-04 14:32:00,49.0,43.0,-100.00,SSW,210,7.0,11.0,79,0.01,,,-99.99,227.000000,,2013-04-04 21:32:00,
2013-04-04 14:53:00,55.0,45.0,-100.00,South,179,6.0,9.0,70,0.00,,,0.03,321.000000,,2013-04-04 21:53:00,
2013-04-04 15:03:00,55.0,45.0,-100.00,South,179,6.0,9.0,70,0.00,,,0.03,321.000000,,2013-04-04 22:03:00,
2013-04-04 15:12:00,55.0,45.0,-100.00,South,179,6.0,9.0,70,0.00,,,0.03,321.000000,,2013-04-04 22:12:00,
2013-04-04 15:22:00,55.0,45.0,-100.00,South,179,6.0,9.0,70,0.00,,,0.03,321.000000,,2013-04-04 22:22:00,
2013-04-04 15:32:00,55.0,45.0,-100.00,South,179,6.0,9.0,70,0.00,,,0.03,321.000000,,2013-04-04 22:32:00,
2013-04-04 15:53:00,49.0,36.0,-100.00,WSW,241,12.0,24.0,61,0.04,,,0.07,342.000000,,2013-04-04 22:53:00,
2013-04-04 16:02:00,49.0,36.0,-100.00,WSW,241,12.0,24.0,61,0.04,,,0.07,342.000000,,2013-04-04 23:02:00,
2013-04-04 16:12:00,49.0,36.0,-100.00,WSW,241,12.0,24.0,61,0.04,,,0.07,342.000000,,2013-04-04 23:12:00,
2013-04-04 16:22:00,49.0,36.0,-100.00,WSW,241,12.0,24.0,61,0.04,,,0.07,342.000000,,2013-04-04 23:22:00,
2013-04-04 16:32:00,49.0,36.0,-100.00,WSW,241,12.0,24.0,61,0.04,,,0.07,342.000000,,2013-04-04 23:32:00,
2013-04-04 16:52:00,47.0,42.0,-100.00,West,264,11.0,20.0,84,0.01,,,0.08,166.000000,,2013-04-04 23:52:00,
2013-04-04 17:02:00,47.0,42.0,-100.00,West,264,11.0,20.0,84,0.01,,,0.08,166.000000,,2013-04-05 00:02:00,
2013-04-04 17:12:00,47.0,42.0,-100.00,West,264,11.0,20.0,84,0.01,,,0.08,166.000000,,2013-04-05 00:12:00,
2013-04-04 17:22:00,47.0,42.0,-100.00,West,264,11.0,20.0,84,0.01,,,0.08,166.000000,,2013-04-05 00:22:00,
2013-04-04 17:32:00,47.0,42.0,-100.00,West,264,11.0,20.0,84,0.01,,,0.08,166.000000,,2013-04-05 00:32:00,
2013-04-04 17:52:00,46.0,39.0,-100.00,West,261,9.0,25.0,75,0.00,,,0.08,144.000000,,2013-04-05 00:52:00,
2013-04-04 18:02:00,46.0,39.0,-100.00,West,261,9.0,25.0,75,0.00,,,0.08,144.000000,,2013-04-05 01:02:00,
2013-04-04 18:12:00,46.0,39.0,-100.00,West,261,9.0,25.0,75,0.00,,,0.08,144.000000,,2013-04-05 01:12:00,
2013-04-04 18:22:00,46.0,39.0,-100.00,West,261,9.0,25.0,75,0.00,,,0.08,144.000000,,2013-04-05 01:22:00,
2013-04-04 18:32:00,46.0,39.0,-100.00,West,261,9.0,25.0,75,0.00,,,0.08,144.000000,,2013-04-05 01:32:00,
2013-04-04 18:53:00,45.0,39.0,-100.00,WSW,254,7.0,18.0,78,0.00,,,0.08,76.000000,,2013-04-05 01:53:00,
2013-04-04 19:02:00,45.0,39.0,-100.00,WSW,254,7.0,18.0,78,0.00,,,0.08,76.000000,,2013-04-05 02:02:00,
2013-04-04 19:12:00,45.0,39.0,-100.00,WSW,254,7.0,18.0,78,0.00,,,0.08,76.000000,,2013-04-05 02:12:00,
2013-04-04 19:22:00,45.0,39.0,-100.00,WSW,254,7.0,18.0,78,0.00,,,0.08,76.000000,,2013-04-05 02:22:00,
2013-04-04 19:32:00,45.0,39.0,-100.00,WSW,254,7.0,18.0,78,0.00,,,0.08,76.000000,,2013-04-05 02:32:00,
2013-04-04 19:52:00,45.0,38.0,-100.00,WSW,253,7.0,15.0,77,0.01,,,0.09,21.000000,,2013-04-05 02:52:00,
2013-04-04 20:02:00,45.0,38.0,-100.00,WSW,253,7.0,15.0,77,0.01,,,0.09,21.000000,,2013-04-05 03:02:00,
2013-04-04 20:12:00,45.0,38.0,-100.00,WSW,253,7.0,15.0,77,0.01,,,0.09,21.000000,,2013-04-05 03:12:00,
2013-04-04 20:22:00,45.0,38.0,-100.00,WSW,253,7.0,15.0,77,0.01,,,0.09,21.000000,,2013-04-05 03:22:00,
2013-04-04 20:32:00,45.0,38.0,-100.00,WSW,253,7.0,15.0,77,0.01,,,0.09,21.000000,,2013-04-05 03:32:00,
2013-04-04 20:53:00,43.0,38.0,-100.00,West,260,6.0,13.0,82,0.00,,,0.09,0.000000,,2013-04-05 03:53:00,
2013-04-04 21:02:00,43.0,38.0,-100.00,West,260,6.0,13.0,82,0.00,,,0.09,0.000000,,2013-04-05 04:02:00,
2013-04-04 21:12:00,43.0,38.0,-100.00,West,260,6.0,13.0,82,0.00,,,0.09,0.000000,,2013-04-05 04:12:00,
2013-04-04 21:22:00,43.0,38.0,-100.00,West,260,6.0,13.0,82,0.00,,,0.09,0.000000,,2013-04-05 04:22:00,
2013-04-04 21:32:00,43.0,38.0,-100.00,West,260,6.0,13.0,82,0.00,,,0.09,0.000000,,2013-04-05 04:32:00,
2013-04-04 21:52:00,43.0,37.0,-100.00,WSW,245,6.0,12.0,79,0.00,,,0.09,0.000000,,2013-04-05 04:52:00,
2013-04-04 22:02:00,43.0,37.0,-100.00,WSW,245,6.0,12.0,79,0.00,,,0.09,0.000000,,2013-04-05 05:02:00,
2013-04-04 22:12:00,43.0,37.0,-100.00,WSW,245,6.0,12.0,79,0.00,,,0.09,0.000000,,2013-04-05 05:12:00,
2013-04-04 22:22:00,43.0,37.0,-100.00,WSW,245,6.0,12.0,79,0.00,,,0.09,0.000000,,2013-04-05 05:22:00,
2013-04-04 22:31:00,43.0,37.0,-100.00,WSW,245,6.0,12.0,79,0.00,,,0.09,0.000000,,2013-04-05 05:31:00,
2013-04-04 22:52:00,42.0,37.0,-100.00,SW,222,10.0,19.0,81,0.00,,,0.09,0.000000,,2013-04-05 05:52:00,
2013-04-04 23:02:00,42.0,37.0,-100.00,SW,222,10.0,19.0,81,0.00,,,0.09,0.000000,,2013-04-05 06:02:00,
2013-04-04 23:12:00,42.0,37.0,-100.00,SW,222,10.0,19.0,81,0.00,,,0.09,0.000000,,2013-04-05 06:12:00,
2013-04-04 23:22:00,42.0,37.0,-100.00,SW,222,10.0,19.0,81,0.00,,,0.09,0.000000,,2013-04-05 06:22:00,
2013-04-04 23:32:00,42.0,37.0,-100.00,SW,222,10.0,19.0,81,0.00,,,0.09,0.000000,,2013-04-05 06:32:00,
2013-04-04 23:52:00,39.0,36.0,-100.00,SW,229,7.0,23.0,88,0.00,,,0.09,0.000000,,2013-04-05 06:52:00,